sensor_id;sensor_type;location;lat;lon;timestamp;temperature;humidity
19966;DHT22;10144;50.874;4.762;2023-08-07T00:02:21;13.30;99.90
19966;DHT22;10144;50.874;4.762;2023-08-07T00:04:47;13.30;99.90
19966;DHT22;10144;50.874;4.762;2023-08-07T00:07:18;13.30;99.90
19966;DHT22;10144;50.874;4.762;2023-08-07T00:09:44;13.20;99.90
19966;DHT22;10144;50.874;4.762;2023-08-07T00:12:10;13.20;99.90
19966;DHT22;10144;50.874;4.762;2023-08-07T00:14:35;13.20;99.90
19966;DHT22;10144;50.874;4.762;2023-08-07T00:17:01;13.20;99.90
19966;DHT22;10144;50.874;4.762;2023-08-07T00:19:27;13.20;99.90
19966;DHT22;10144;50.874;4.762;2023-08-07T00:21:55;13.20;99.90
19966;DHT22;10144;50.874;4.762;2023-08-07T00:24:22;13.10;99.90
19966;DHT22;10144;50.874;4.762;2023-08-07T00:26:47;13.00;99.90
19966;DHT22;10144;50.874;4.762;2023-08-07T00:29:13;13.00;99.90
19966;DHT22;10144;50.874;4.762;2023-08-07T00:31:39;13.00;99.90
19966;DHT22;10144;50.874;4.762;2023-08-07T00:34:04;13.10;99.90
19966;DHT22;10144;50.874;4.762;2023-08-07T00:36:30;13.10;99.90
19966;DHT22;10144;50.874;4.762;2023-08-07T00:39:05;13.10;99.90
19966;DHT22;10144;50.874;4.762;2023-08-07T00:41:34;13.00;99.90
19966;DHT22;10144;50.874;4.762;2023-08-07T00:44:00;13.00;99.90
19966;DHT22;10144;50.874;4.762;2023-08-07T00:46:27;13.00;99.90
19966;DHT22;10144;50.874;4.762;2023-08-07T00:48:54;13.00;99.90
19966;DHT22;10144;50.874;4.762;2023-08-07T00:51:21;13.00;99.90
19966;DHT22;10144;50.874;4.762;2023-08-07T00:53:48;13.00;99.90
19966;DHT22;10144;50.874;4.762;2023-08-07T00:56:14;13.10;99.90
19966;DHT22;10144;50.874;4.762;2023-08-07T00:58:42;13.00;99.90
19966;DHT22;10144;50.874;4.762;2023-08-07T01:01:09;13.00;99.90
19966;DHT22;10144;50.874;4.762;2023-08-07T01:03:36;12.90;99.90
19966;DHT22;10144;50.874;4.762;2023-08-07T01:06:01;12.90;99.90
19966;DHT22;10144;50.874;4.762;2023-08-07T01:08:27;12.90;99.90
19966;DHT22;10144;50.874;4.762;2023-08-07T01:16:25;12.80;99.90
19966;DHT22;10144;50.874;4.762;2023-08-07T01:18:55;12.80;99.90
19966;DHT22;10144;50.874;4.762;2023-08-07T01:21:25;12.80;99.90
19966;DHT22;10144;50.874;4.762;2023-08-07T01:23:53;12.80;99.90
19966;DHT22;10144;50.874;4.762;2023-08-07T01:26:24;12.80;99.90
19966;DHT22;10144;50.874;4.762;2023-08-07T01:29:04;12.80;99.90
19966;DHT22;10144;50.874;4.762;2023-08-07T01:31:33;12.90;99.90
19966;DHT22;10144;50.874;4.762;2023-08-07T01:34:07;12.90;99.90
19966;DHT22;10144;50.874;4.762;2023-08-07T01:36:37;12.90;99.90
19966;DHT22;10144;50.874;4.762;2023-08-07T01:39:04;12.90;99.90
19966;DHT22;10144;50.874;4.762;2023-08-07T01:41:35;12.90;99.90
19966;DHT22;10144;50.874;4.762;2023-08-07T01:44:01;12.80;99.90
19966;DHT22;10144;50.874;4.762;2023-08-07T01:46:27;12.80;99.90
19966;DHT22;10144;50.874;4.762;2023-08-07T01:48:54;12.80;99.90
19966;DHT22;10144;50.874;4.762;2023-08-07T01:51:20;12.80;99.90
19966;DHT22;10144;50.874;4.762;2023-08-07T01:53:52;12.70;99.90
19966;DHT22;10144;50.874;4.762;2023-08-07T01:56:21;12.70;99.90
19966;DHT22;10144;50.874;4.762;2023-08-07T01:58:47;12.70;99.90
19966;DHT22;10144;50.874;4.762;2023-08-07T02:01:13;12.70;99.90
19966;DHT22;10144;50.874;4.762;2023-08-07T02:03:38;12.70;99.90
19966;DHT22;10144;50.874;4.762;2023-08-07T02:06:05;12.70;99.90
19966;DHT22;10144;50.874;4.762;2023-08-07T02:08:31;12.60;99.90
19966;DHT22;10144;50.874;4.762;2023-08-07T02:10:56;12.60;99.90
19966;DHT22;10144;50.874;4.762;2023-08-07T02:13:22;12.60;99.90
19966;DHT22;10144;50.874;4.762;2023-08-07T02:15:48;12.70;99.90
19966;DHT22;10144;50.874;4.762;2023-08-07T02:18:13;12.60;99.90
19966;DHT22;10144;50.874;4.762;2023-08-07T02:20:39;12.50;99.90
19966;DHT22;10144;50.874;4.762;2023-08-07T02:23:05;12.50;99.90
19966;DHT22;10144;50.874;4.762;2023-08-07T02:25:31;12.50;99.90
19966;DHT22;10144;50.874;4.762;2023-08-07T02:27:57;12.50;99.90
19966;DHT22;10144;50.874;4.762;2023-08-07T02:30:22;12.50;99.90
19966;DHT22;10144;50.874;4.762;2023-08-07T02:32:48;12.50;99.90
19966;DHT22;10144;50.874;4.762;2023-08-07T02:35:14;12.50;99.90
19966;DHT22;10144;50.874;4.762;2023-08-07T02:37:40;12.50;99.90
19966;DHT22;10144;50.874;4.762;2023-08-07T02:40:06;12.60;99.90
19966;DHT22;10144;50.874;4.762;2023-08-07T02:42:32;12.50;99.90
19966;DHT22;10144;50.874;4.762;2023-08-07T02:44:57;12.50;99.90
19966;DHT22;10144;50.874;4.762;2023-08-07T02:47:23;12.50;99.90
19966;DHT22;10144;50.874;4.762;2023-08-07T02:49:49;12.50;99.90
19966;DHT22;10144;50.874;4.762;2023-08-07T02:52:14;12.40;99.90
19966;DHT22;10144;50.874;4.762;2023-08-07T02:54:40;12.40;99.90
19966;DHT22;10144;50.874;4.762;2023-08-07T02:57:05;12.40;99.90
19966;DHT22;10144;50.874;4.762;2023-08-07T02:59:31;12.40;99.90
19966;DHT22;10144;50.874;4.762;2023-08-07T03:01:57;12.50;99.90
19966;DHT22;10144;50.874;4.762;2023-08-07T03:04:22;12.50;99.90
19966;DHT22;10144;50.874;4.762;2023-08-07T03:06:48;12.50;99.90
19966;DHT22;10144;50.874;4.762;2023-08-07T03:09:13;12.50;99.90
19966;DHT22;10144;50.874;4.762;2023-08-07T03:11:39;12.50;99.90
19966;DHT22;10144;50.874;4.762;2023-08-07T03:14:08;12.40;99.90
19966;DHT22;10144;50.874;4.762;2023-08-07T03:16:36;12.30;99.90
19966;DHT22;10144;50.874;4.762;2023-08-07T03:19:01;12.30;99.90
19966;DHT22;10144;50.874;4.762;2023-08-07T03:21:33;12.40;99.90
19966;DHT22;10144;50.874;4.762;2023-08-07T03:24:00;12.50;99.90
19966;DHT22;10144;50.874;4.762;2023-08-07T03:26:29;12.40;99.90
19966;DHT22;10144;50.874;4.762;2023-08-07T03:28:56;12.40;99.90
19966;DHT22;10144;50.874;4.762;2023-08-07T03:31:27;12.40;99.90
19966;DHT22;10144;50.874;4.762;2023-08-07T03:33:54;12.40;99.90
19966;DHT22;10144;50.874;4.762;2023-08-07T03:36:21;12.40;99.90
19966;DHT22;10144;50.874;4.762;2023-08-07T03:38:47;12.50;99.90
19966;DHT22;10144;50.874;4.762;2023-08-07T03:41:16;12.50;99.90
19966;DHT22;10144;50.874;4.762;2023-08-07T03:43:44;12.50;99.90
19966;DHT22;10144;50.874;4.762;2023-08-07T03:46:15;12.40;99.90
19966;DHT22;10144;50.874;4.762;2023-08-07T03:48:41;12.40;99.90
19966;DHT22;10144;50.874;4.762;2023-08-07T03:51:09;12.40;99.90
19966;DHT22;10144;50.874;4.762;2023-08-07T03:53:37;12.50;99.90
19966;DHT22;10144;50.874;4.762;2023-08-07T03:56:05;12.50;99.90
19966;DHT22;10144;50.874;4.762;2023-08-07T03:58:32;12.50;99.90
19966;DHT22;10144;50.874;4.762;2023-08-07T04:01:00;12.50;99.90
19966;DHT22;10144;50.874;4.762;2023-08-07T04:03:25;12.60;99.90
19966;DHT22;10144;50.874;4.762;2023-08-07T04:05:52;12.70;99.90
19966;DHT22;10144;50.874;4.762;2023-08-07T04:08:19;12.70;99.90
19966;DHT22;10144;50.874;4.762;2023-08-07T04:11:07;12.60;99.90
19966;DHT22;10144;50.874;4.762;2023-08-07T04:13:35;12.60;99.90
19966;DHT22;10144;50.874;4.762;2023-08-07T04:16:07;12.70;99.90
19966;DHT22;10144;50.874;4.762;2023-08-07T04:18:34;12.80;99.90
19966;DHT22;10144;50.874;4.762;2023-08-07T04:20:59;12.80;99.90
19966;DHT22;10144;50.874;4.762;2023-08-07T04:23:28;12.80;99.90
19966;DHT22;10144;50.874;4.762;2023-08-07T04:25:54;12.80;99.90
19966;DHT22;10144;50.874;4.762;2023-08-07T04:28:20;12.80;99.90
19966;DHT22;10144;50.874;4.762;2023-08-07T04:30:51;12.90;99.90
19966;DHT22;10144;50.874;4.762;2023-08-07T04:33:17;13.00;99.90
19966;DHT22;10144;50.874;4.762;2023-08-07T04:35:49;13.00;99.90
19966;DHT22;10144;50.874;4.762;2023-08-07T04:38:16;12.90;99.90
19966;DHT22;10144;50.874;4.762;2023-08-07T04:40:49;12.90;99.90
19966;DHT22;10144;50.874;4.762;2023-08-07T04:43:17;13.00;99.90
19966;DHT22;10144;50.874;4.762;2023-08-07T04:45:44;13.00;99.90
19966;DHT22;10144;50.874;4.762;2023-08-07T04:48:15;13.00;99.90
19966;DHT22;10144;50.874;4.762;2023-08-07T04:50:43;13.10;99.90
19966;DHT22;10144;50.874;4.762;2023-08-07T04:53:12;13.10;99.90
19966;DHT22;10144;50.874;4.762;2023-08-07T04:55:41;13.10;99.90
19966;DHT22;10144;50.874;4.762;2023-08-07T04:58:07;13.10;99.90
19966;DHT22;10144;50.874;4.762;2023-08-07T05:00:37;13.10;99.90
19966;DHT22;10144;50.874;4.762;2023-08-07T05:03:02;13.10;99.90
19966;DHT22;10144;50.874;4.762;2023-08-07T05:05:34;13.20;99.90
19966;DHT22;10144;50.874;4.762;2023-08-07T05:08:00;13.20;99.90
19966;DHT22;10144;50.874;4.762;2023-08-07T05:10:27;13.30;99.90
19966;DHT22;10144;50.874;4.762;2023-08-07T05:12:55;13.30;99.90
19966;DHT22;10144;50.874;4.762;2023-08-07T05:15:25;13.30;99.90
19966;DHT22;10144;50.874;4.762;2023-08-07T05:17:53;13.30;99.90
19966;DHT22;10144;50.874;4.762;2023-08-07T05:20:21;13.30;99.90
19966;DHT22;10144;50.874;4.762;2023-08-07T05:22:49;13.30;99.90
19966;DHT22;10144;50.874;4.762;2023-08-07T05:25:16;13.30;99.90
19966;DHT22;10144;50.874;4.762;2023-08-07T05:27:43;13.30;99.90
19966;DHT22;10144;50.874;4.762;2023-08-07T05:30:14;13.40;99.90
19966;DHT22;10144;50.874;4.762;2023-08-07T05:32:46;13.80;99.90
19966;DHT22;10144;50.874;4.762;2023-08-07T05:35:18;14.50;99.90
19966;DHT22;10144;50.874;4.762;2023-08-07T05:37:43;15.00;99.90
19966;DHT22;10144;50.874;4.762;2023-08-07T05:40:09;15.40;99.90
19966;DHT22;10144;50.874;4.762;2023-08-07T05:42:37;15.80;99.90
19966;DHT22;10144;50.874;4.762;2023-08-07T05:45:04;16.20;99.90
19966;DHT22;10144;50.874;4.762;2023-08-07T05:47:32;16.30;99.90
19966;DHT22;10144;50.874;4.762;2023-08-07T05:49:58;16.10;99.90
19966;DHT22;10144;50.874;4.762;2023-08-07T05:52:30;16.30;99.90
19966;DHT22;10144;50.874;4.762;2023-08-07T05:54:55;16.80;99.90
19966;DHT22;10144;50.874;4.762;2023-08-07T05:57:22;17.40;99.90
19966;DHT22;10144;50.874;4.762;2023-08-07T05:59:48;18.00;99.90
19966;DHT22;10144;50.874;4.762;2023-08-07T06:02:15;18.50;99.90
19966;DHT22;10144;50.874;4.762;2023-08-07T06:04:43;18.60;99.90
19966;DHT22;10144;50.874;4.762;2023-08-07T06:07:09;18.70;99.90
19966;DHT22;10144;50.874;4.762;2023-08-07T06:09:35;18.80;99.90
19966;DHT22;10144;50.874;4.762;2023-08-07T06:12:07;18.90;99.90
19966;DHT22;10144;50.874;4.762;2023-08-07T06:14:33;18.90;99.90
19966;DHT22;10144;50.874;4.762;2023-08-07T06:16:59;19.10;99.90
19966;DHT22;10144;50.874;4.762;2023-08-07T06:19:28;19.70;99.90
19966;DHT22;10144;50.874;4.762;2023-08-07T06:21:55;20.40;99.90
19966;DHT22;10144;50.874;4.762;2023-08-07T06:24:22;20.70;99.90
19966;DHT22;10144;50.874;4.762;2023-08-07T06:26:49;20.90;99.90
19966;DHT22;10144;50.874;4.762;2023-08-07T06:29:16;20.10;99.90
19966;DHT22;10144;50.874;4.762;2023-08-07T06:31:47;20.40;99.90
19966;DHT22;10144;50.874;4.762;2023-08-07T06:34:14;20.80;99.90
19966;DHT22;10144;50.874;4.762;2023-08-07T06:36:43;21.30;99.90
19966;DHT22;10144;50.874;4.762;2023-08-07T06:39:12;21.60;99.90
19966;DHT22;10144;50.874;4.762;2023-08-07T06:41:40;21.90;99.90
19966;DHT22;10144;50.874;4.762;2023-08-07T06:44:12;22.10;99.90
19966;DHT22;10144;50.874;4.762;2023-08-07T06:46:40;22.40;99.90
19966;DHT22;10144;50.874;4.762;2023-08-07T06:49:05;22.20;99.90
19966;DHT22;10144;50.874;4.762;2023-08-07T06:51:34;22.10;99.90
19966;DHT22;10144;50.874;4.762;2023-08-07T06:54:00;22.20;99.90
19966;DHT22;10144;50.874;4.762;2023-08-07T06:56:26;21.80;99.90
19966;DHT22;10144;50.874;4.762;2023-08-07T06:58:54;22.10;99.90
19966;DHT22;10144;50.874;4.762;2023-08-07T07:01:22;22.10;99.90
19966;DHT22;10144;50.874;4.762;2023-08-07T07:03:51;22.30;99.90
19966;DHT22;10144;50.874;4.762;2023-08-07T07:06:21;22.00;99.90
19966;DHT22;10144;50.874;4.762;2023-08-07T07:08:48;22.30;99.90
19966;DHT22;10144;50.874;4.762;2023-08-07T07:11:14;22.80;99.90
19966;DHT22;10144;50.874;4.762;2023-08-07T07:13:40;22.60;99.90
19966;DHT22;10144;50.874;4.762;2023-08-07T07:16:07;22.50;99.90
19966;DHT22;10144;50.874;4.762;2023-08-07T07:18:32;22.50;99.90
19966;DHT22;10144;50.874;4.762;2023-08-07T07:20:59;22.00;99.90
19966;DHT22;10144;50.874;4.762;2023-08-07T07:23:26;21.90;99.90
19966;DHT22;10144;50.874;4.762;2023-08-07T07:25:52;21.90;99.90
19966;DHT22;10144;50.874;4.762;2023-08-07T07:28:17;21.80;99.90
19966;DHT22;10144;50.874;4.762;2023-08-07T07:30:43;22.00;99.90
19966;DHT22;10144;50.874;4.762;2023-08-07T07:33:09;22.60;99.90
19966;DHT22;10144;50.874;4.762;2023-08-07T07:35:38;22.90;99.90
19966;DHT22;10144;50.874;4.762;2023-08-07T07:38:06;22.90;99.90
19966;DHT22;10144;50.874;4.762;2023-08-07T07:40:34;23.00;99.90
19966;DHT22;10144;50.874;4.762;2023-08-07T07:42:59;23.20;99.90
19966;DHT22;10144;50.874;4.762;2023-08-07T07:45:26;23.30;99.90
19966;DHT22;10144;50.874;4.762;2023-08-07T07:47:52;23.30;99.90
19966;DHT22;10144;50.874;4.762;2023-08-07T07:50:17;23.10;99.90
19966;DHT22;10144;50.874;4.762;2023-08-07T07:52:43;23.00;99.90
19966;DHT22;10144;50.874;4.762;2023-08-07T07:55:09;22.80;99.90
19966;DHT22;10144;50.874;4.762;2023-08-07T07:57:35;22.10;99.90
19966;DHT22;10144;50.874;4.762;2023-08-07T08:00:01;21.40;99.90
19966;DHT22;10144;50.874;4.762;2023-08-07T08:02:29;21.10;99.90
19966;DHT22;10144;50.874;4.762;2023-08-07T08:04:55;21.30;99.90
19966;DHT22;10144;50.874;4.762;2023-08-07T08:07:21;21.30;99.90
19966;DHT22;10144;50.874;4.762;2023-08-07T08:09:47;21.10;99.90
19966;DHT22;10144;50.874;4.762;2023-08-07T08:12:12;21.40;99.90
19966;DHT22;10144;50.874;4.762;2023-08-07T08:14:38;22.30;99.90
19966;DHT22;10144;50.874;4.762;2023-08-07T08:17:04;22.70;99.90
19966;DHT22;10144;50.874;4.762;2023-08-07T08:19:29;23.10;99.90
19966;DHT22;10144;50.874;4.762;2023-08-07T08:21:55;23.30;99.90
19966;DHT22;10144;50.874;4.762;2023-08-07T08:24:21;22.40;99.90
19966;DHT22;10144;50.874;4.762;2023-08-07T08:26:47;22.00;99.90
19966;DHT22;10144;50.874;4.762;2023-08-07T08:29:14;22.10;99.90
19966;DHT22;10144;50.874;4.762;2023-08-07T08:31:40;22.00;99.90
19966;DHT22;10144;50.874;4.762;2023-08-07T08:34:05;21.80;99.90
19966;DHT22;10144;50.874;4.762;2023-08-07T08:36:31;21.50;99.90
19966;DHT22;10144;50.874;4.762;2023-08-07T08:38:57;21.20;99.90
19966;DHT22;10144;50.874;4.762;2023-08-07T08:41:22;21.50;99.90
19966;DHT22;10144;50.874;4.762;2023-08-07T08:43:51;22.10;99.90
19966;DHT22;10144;50.874;4.762;2023-08-07T08:46:19;22.20;99.90
19966;DHT22;10144;50.874;4.762;2023-08-07T08:48:52;22.10;99.90
19966;DHT22;10144;50.874;4.762;2023-08-07T08:51:22;21.50;99.90
19966;DHT22;10144;50.874;4.762;2023-08-07T08:53:51;20.90;99.90
19966;DHT22;10144;50.874;4.762;2023-08-07T08:56:17;20.90;99.90
19966;DHT22;10144;50.874;4.762;2023-08-07T08:58:43;21.20;99.90
19966;DHT22;10144;50.874;4.762;2023-08-07T09:01:09;21.30;99.90
19966;DHT22;10144;50.874;4.762;2023-08-07T09:03:36;22.30;99.90
19966;DHT22;10144;50.874;4.762;2023-08-07T09:06:02;22.70;99.90
19966;DHT22;10144;50.874;4.762;2023-08-07T09:08:27;22.50;99.90
19966;DHT22;10144;50.874;4.762;2023-08-07T09:10:56;21.40;99.90
19966;DHT22;10144;50.874;4.762;2023-08-07T09:13:23;20.80;99.90
19966;DHT22;10144;50.874;4.762;2023-08-07T09:15:50;20.20;99.90
19966;DHT22;10144;50.874;4.762;2023-08-07T09:18:17;19.80;99.90
19966;DHT22;10144;50.874;4.762;2023-08-07T09:20:43;20.20;99.90
19966;DHT22;10144;50.874;4.762;2023-08-07T09:23:09;21.00;99.90
19966;DHT22;10144;50.874;4.762;2023-08-07T09:25:35;22.00;99.90
19966;DHT22;10144;50.874;4.762;2023-08-07T09:28:07;22.50;99.90
19966;DHT22;10144;50.874;4.762;2023-08-07T09:30:34;23.00;99.90
19966;DHT22;10144;50.874;4.762;2023-08-07T09:33:01;23.70;99.90
19966;DHT22;10144;50.874;4.762;2023-08-07T09:35:30;23.60;99.90
19966;DHT22;10144;50.874;4.762;2023-08-07T09:37:57;22.80;99.90
19966;DHT22;10144;50.874;4.762;2023-08-07T09:40:23;21.90;99.90
19966;DHT22;10144;50.874;4.762;2023-08-07T09:42:55;21.10;99.90
19966;DHT22;10144;50.874;4.762;2023-08-07T09:45:25;20.90;99.90
19966;DHT22;10144;50.874;4.762;2023-08-07T09:48:01;21.40;99.90
19966;DHT22;10144;50.874;4.762;2023-08-07T09:50:27;21.40;99.90
19966;DHT22;10144;50.874;4.762;2023-08-07T09:52:54;20.70;99.90
19966;DHT22;10144;50.874;4.762;2023-08-07T09:55:20;20.20;99.90
19966;DHT22;10144;50.874;4.762;2023-08-07T09:57:46;20.30;99.90
19966;DHT22;10144;50.874;4.762;2023-08-07T10:00:13;21.10;99.90
19966;DHT22;10144;50.874;4.762;2023-08-07T10:02:48;21.90;99.90
19966;DHT22;10144;50.874;4.762;2023-08-07T10:05:15;21.90;99.90
19966;DHT22;10144;50.874;4.762;2023-08-07T10:07:41;21.50;99.90
19966;DHT22;10144;50.874;4.762;2023-08-07T10:10:08;21.70;99.90
19966;DHT22;10144;50.874;4.762;2023-08-07T10:12:34;22.30;99.90
19966;DHT22;10144;50.874;4.762;2023-08-07T10:15:00;23.10;99.90
19966;DHT22;10144;50.874;4.762;2023-08-07T10:17:27;23.00;99.90
19966;DHT22;10144;50.874;4.762;2023-08-07T10:19:53;22.10;99.90
19966;DHT22;10144;50.874;4.762;2023-08-07T10:22:19;21.40;99.90
19966;DHT22;10144;50.874;4.762;2023-08-07T10:24:48;21.40;99.90
19966;DHT22;10144;50.874;4.762;2023-08-07T10:27:17;22.00;99.90
19966;DHT22;10144;50.874;4.762;2023-08-07T10:29:46;22.50;99.90
19966;DHT22;10144;50.874;4.762;2023-08-07T10:32:13;22.60;99.90
19966;DHT22;10144;50.874;4.762;2023-08-07T10:34:46;22.30;99.90
19966;DHT22;10144;50.874;4.762;2023-08-07T10:40:04;21.30;99.90
19966;DHT22;10144;50.874;4.762;2023-08-07T10:45:17;21.00;99.90
19966;DHT22;10144;50.874;4.762;2023-08-07T10:47:43;21.60;99.90
19966;DHT22;10144;50.874;4.762;2023-08-07T10:50:12;21.70;99.90
19966;DHT22;10144;50.874;4.762;2023-08-07T10:52:41;21.40;99.90
19966;DHT22;10144;50.874;4.762;2023-08-07T10:55:13;20.90;99.90
19966;DHT22;10144;50.874;4.762;2023-08-07T10:57:40;20.50;99.90
19966;DHT22;10144;50.874;4.762;2023-08-07T11:00:06;20.00;99.90
19966;DHT22;10144;50.874;4.762;2023-08-07T11:02:37;20.20;99.90
19966;DHT22;10144;50.874;4.762;2023-08-07T11:05:06;21.10;99.90
19966;DHT22;10144;50.874;4.762;2023-08-07T11:07:32;22.00;99.90
19966;DHT22;10144;50.874;4.762;2023-08-07T11:09:59;22.70;99.90
19966;DHT22;10144;50.874;4.762;2023-08-07T11:12:25;23.00;99.90
19966;DHT22;10144;50.874;4.762;2023-08-07T11:14:52;23.50;99.90
19966;DHT22;10144;50.874;4.762;2023-08-07T11:17:28;22.90;99.90
19966;DHT22;10144;50.874;4.762;2023-08-07T11:19:56;22.40;99.90
19966;DHT22;10144;50.874;4.762;2023-08-07T11:22:23;23.10;99.90
19966;DHT22;10144;50.874;4.762;2023-08-07T11:24:50;23.40;99.90
19966;DHT22;10144;50.874;4.762;2023-08-07T11:27:16;23.00;99.90
19966;DHT22;10144;50.874;4.762;2023-08-07T11:29:41;23.10;99.90
19966;DHT22;10144;50.874;4.762;2023-08-07T11:32:11;23.60;99.90
19966;DHT22;10144;50.874;4.762;2023-08-07T11:34:37;23.60;99.90
19966;DHT22;10144;50.874;4.762;2023-08-07T11:37:04;23.20;99.90
19966;DHT22;10144;50.874;4.762;2023-08-07T11:39:30;23.50;99.90
19966;DHT22;10144;50.874;4.762;2023-08-07T11:41:55;24.20;99.90
19966;DHT22;10144;50.874;4.762;2023-08-07T11:44:23;24.20;99.90
19966;DHT22;10144;50.874;4.762;2023-08-07T11:46:50;24.30;99.90
19966;DHT22;10144;50.874;4.762;2023-08-07T11:49:16;24.80;99.90
19966;DHT22;10144;50.874;4.762;2023-08-07T11:51:45;24.50;99.90
19966;DHT22;10144;50.874;4.762;2023-08-07T11:54:14;24.60;99.90
19966;DHT22;10144;50.874;4.762;2023-08-07T11:56:41;24.60;99.90
19966;DHT22;10144;50.874;4.762;2023-08-07T11:59:08;24.20;99.90
19966;DHT22;10144;50.874;4.762;2023-08-07T12:01:38;23.80;99.90
19966;DHT22;10144;50.874;4.762;2023-08-07T12:06:36;23.20;99.90
19966;DHT22;10144;50.874;4.762;2023-08-07T12:09:05;22.90;99.90
19966;DHT22;10144;50.874;4.762;2023-08-07T12:11:35;22.70;99.90
19966;DHT22;10144;50.874;4.762;2023-08-07T12:14:07;22.90;99.90
19966;DHT22;10144;50.874;4.762;2023-08-07T12:16:34;22.80;99.90
19966;DHT22;10144;50.874;4.762;2023-08-07T12:19:00;22.30;99.90
19966;DHT22;10144;50.874;4.762;2023-08-07T12:21:28;22.00;99.90
19966;DHT22;10144;50.874;4.762;2023-08-07T12:23:59;21.40;99.90
19966;DHT22;10144;50.874;4.762;2023-08-07T12:26:26;21.10;99.90
19966;DHT22;10144;50.874;4.762;2023-08-07T12:28:53;21.20;99.90
19966;DHT22;10144;50.874;4.762;2023-08-07T12:31:20;21.30;99.90
19966;DHT22;10144;50.874;4.762;2023-08-07T12:33:46;21.50;99.90
19966;DHT22;10144;50.874;4.762;2023-08-07T12:36:14;21.80;99.90
19966;DHT22;10144;50.874;4.762;2023-08-07T12:38:41;22.20;99.90
19966;DHT22;10144;50.874;4.762;2023-08-07T12:41:07;22.40;99.90
19966;DHT22;10144;50.874;4.762;2023-08-07T12:43:36;22.40;99.90
19966;DHT22;10144;50.874;4.762;2023-08-07T12:46:01;22.30;99.90
19966;DHT22;10144;50.874;4.762;2023-08-07T12:48:27;22.30;99.90
19966;DHT22;10144;50.874;4.762;2023-08-07T12:50:54;21.80;99.90
19966;DHT22;10144;50.874;4.762;2023-08-07T12:53:20;21.70;99.90
19966;DHT22;10144;50.874;4.762;2023-08-07T12:55:45;22.00;99.90
19966;DHT22;10144;50.874;4.762;2023-08-07T12:58:11;22.40;99.90
19966;DHT22;10144;50.874;4.762;2023-08-07T13:00:37;22.70;99.90
19966;DHT22;10144;50.874;4.762;2023-08-07T13:03:02;23.20;99.90
19966;DHT22;10144;50.874;4.762;2023-08-07T13:05:28;23.80;99.90
19966;DHT22;10144;50.874;4.762;2023-08-07T13:07:56;24.00;99.90
19966;DHT22;10144;50.874;4.762;2023-08-07T13:10:24;24.10;99.90
19966;DHT22;10144;50.874;4.762;2023-08-07T13:12:50;23.70;99.90
19966;DHT22;10144;50.874;4.762;2023-08-07T13:15:18;23.70;99.90
19966;DHT22;10144;50.874;4.762;2023-08-07T13:17:44;23.80;99.90
19966;DHT22;10144;50.874;4.762;2023-08-07T13:20:12;23.90;99.90
19966;DHT22;10144;50.874;4.762;2023-08-07T13:22:40;24.30;99.90
19966;DHT22;10144;50.874;4.762;2023-08-07T13:25:08;24.50;99.90
19966;DHT22;10144;50.874;4.762;2023-08-07T13:27:35;24.50;99.90
19966;DHT22;10144;50.874;4.762;2023-08-07T13:30:02;24.70;99.90
19966;DHT22;10144;50.874;4.762;2023-08-07T13:32:28;24.10;99.90
19966;DHT22;10144;50.874;4.762;2023-08-07T13:34:54;23.50;99.90
19966;DHT22;10144;50.874;4.762;2023-08-07T13:37:22;23.30;99.90
19966;DHT22;10144;50.874;4.762;2023-08-07T13:39:49;23.20;99.90
19966;DHT22;10144;50.874;4.762;2023-08-07T13:42:17;22.90;99.90
19966;DHT22;10144;50.874;4.762;2023-08-07T13:44:44;22.50;99.90
19966;DHT22;10144;50.874;4.762;2023-08-07T13:47:10;22.40;99.90
19966;DHT22;10144;50.874;4.762;2023-08-07T13:49:37;22.30;99.90
19966;DHT22;10144;50.874;4.762;2023-08-07T13:52:09;22.10;99.90
19966;DHT22;10144;50.874;4.762;2023-08-07T13:54:34;22.00;99.90
19966;DHT22;10144;50.874;4.762;2023-08-07T13:57:02;21.70;99.90
19966;DHT22;10144;50.874;4.762;2023-08-07T13:59:29;21.50;99.90
19966;DHT22;10144;50.874;4.762;2023-08-07T14:01:58;21.50;99.90
19966;DHT22;10144;50.874;4.762;2023-08-07T14:04:24;21.90;99.90
19966;DHT22;10144;50.874;4.762;2023-08-07T14:06:50;22.30;99.90
19966;DHT22;10144;50.874;4.762;2023-08-07T14:09:16;22.40;99.90
19966;DHT22;10144;50.874;4.762;2023-08-07T14:11:43;22.30;99.90
19966;DHT22;10144;50.874;4.762;2023-08-07T14:14:09;22.30;99.90
19966;DHT22;10144;50.874;4.762;2023-08-07T14:16:35;22.60;99.90
19966;DHT22;10144;50.874;4.762;2023-08-07T14:19:00;22.80;99.90
19966;DHT22;10144;50.874;4.762;2023-08-07T14:21:26;22.50;99.90
19966;DHT22;10144;50.874;4.762;2023-08-07T14:23:52;21.90;99.90
19966;DHT22;10144;50.874;4.762;2023-08-07T14:26:17;21.70;99.90
19966;DHT22;10144;50.874;4.762;2023-08-07T14:28:44;21.60;99.90
19966;DHT22;10144;50.874;4.762;2023-08-07T14:31:10;21.40;99.90
19966;DHT22;10144;50.874;4.762;2023-08-07T14:33:37;21.40;99.90
19966;DHT22;10144;50.874;4.762;2023-08-07T14:36:02;21.20;99.90
19966;DHT22;10144;50.874;4.762;2023-08-07T14:38:29;21.40;99.90
19966;DHT22;10144;50.874;4.762;2023-08-07T14:40:55;21.10;99.90
19966;DHT22;10144;50.874;4.762;2023-08-07T14:43:21;21.30;99.90
19966;DHT22;10144;50.874;4.762;2023-08-07T14:45:46;21.60;99.90
19966;DHT22;10144;50.874;4.762;2023-08-07T14:48:13;22.00;99.90
19966;DHT22;10144;50.874;4.762;2023-08-07T14:50:40;22.10;99.90
19966;DHT22;10144;50.874;4.762;2023-08-07T14:53:05;22.20;99.90
19966;DHT22;10144;50.874;4.762;2023-08-07T14:55:31;22.10;99.90
19966;DHT22;10144;50.874;4.762;2023-08-07T14:57:57;22.00;99.90
19966;DHT22;10144;50.874;4.762;2023-08-07T15:00:24;21.90;99.90
19966;DHT22;10144;50.874;4.762;2023-08-07T15:02:50;21.90;99.90
19966;DHT22;10144;50.874;4.762;2023-08-07T15:05:15;22.10;99.90
19966;DHT22;10144;50.874;4.762;2023-08-07T15:07:41;22.30;99.90
19966;DHT22;10144;50.874;4.762;2023-08-07T15:10:08;22.60;99.90
19966;DHT22;10144;50.874;4.762;2023-08-07T15:12:34;22.70;99.90
19966;DHT22;10144;50.874;4.762;2023-08-07T15:15:00;22.50;99.90
19966;DHT22;10144;50.874;4.762;2023-08-07T15:17:26;22.40;99.90
19966;DHT22;10144;50.874;4.762;2023-08-07T15:19:51;22.20;99.90
19966;DHT22;10144;50.874;4.762;2023-08-07T15:22:17;21.90;99.90
19966;DHT22;10144;50.874;4.762;2023-08-07T15:24:43;21.60;99.90
19966;DHT22;10144;50.874;4.762;2023-08-07T15:27:09;21.40;99.90
19966;DHT22;10144;50.874;4.762;2023-08-07T15:29:34;21.40;99.90
19966;DHT22;10144;50.874;4.762;2023-08-07T15:32:00;21.30;99.90
19966;DHT22;10144;50.874;4.762;2023-08-07T15:34:26;21.00;99.90
19966;DHT22;10144;50.874;4.762;2023-08-07T15:36:51;20.80;99.90
19966;DHT22;10144;50.874;4.762;2023-08-07T15:39:17;20.80;99.90
19966;DHT22;10144;50.874;4.762;2023-08-07T15:41:42;20.80;99.90
19966;DHT22;10144;50.874;4.762;2023-08-07T15:44:08;20.60;99.90